createdAt,value
2018-01-12T00:02:14.055Z,30.57
2018-01-12T00:04:41.609Z,27.07
2018-01-12T00:07:09.182Z,28.23
2018-01-12T00:09:36.723Z,30.60
2018-01-12T00:12:04.616Z,29.23
2018-01-12T00:14:32.157Z,29.13
2018-01-12T00:17:00.132Z,28.40
2018-01-12T00:19:27.669Z,30.63
2018-01-12T00:21:55.221Z,28.87
2018-01-12T00:24:22.813Z,28.47
2018-01-12T00:26:50.354Z,26.03
2018-01-12T00:29:17.917Z,27.37
2018-01-12T00:31:45.572Z,28.50
2018-01-12T00:34:13.554Z,28.47
2018-01-12T00:36:41.092Z,28.17
2018-01-12T00:39:08.629Z,34.87
2018-01-12T00:41:36.225Z,32.90
2018-01-12T00:44:03.769Z,28.43
2018-01-12T00:46:31.416Z,27.87
2018-01-12T00:48:58.944Z,28.13
2018-01-12T00:51:26.562Z,27.47
2018-01-12T00:53:54.105Z,27.73
2018-01-12T00:56:22.105Z,28.80
2018-01-12T00:58:49.654Z,28.97
2018-01-12T01:01:17.173Z,28.87
2018-01-12T01:03:44.757Z,24.90
2018-01-12T01:06:12.296Z,28.33
2018-01-12T01:08:39.870Z,27.37
2018-01-12T01:11:07.446Z,27.23
2018-01-12T01:13:35.231Z,29.10
2018-01-12T01:16:02.796Z,26.33
2018-01-12T01:18:31.233Z,29.43
2018-01-12T01:20:59.347Z,29.60
2018-01-12T01:23:26.884Z,32.80
2018-01-12T01:25:54.412Z,26.73
2018-01-12T01:28:21.993Z,30.00
2018-01-12T01:30:49.540Z,28.40
2018-01-12T01:33:17.144Z,30.33
2018-01-12T01:35:44.697Z,28.10
2018-01-12T01:38:12.617Z,32.53
2018-01-12T01:40:41.186Z,30.03
2018-01-12T01:43:08.733Z,30.37
2018-01-12T01:45:36.381Z,33.30
2018-01-12T01:48:03.913Z,29.93
2018-01-12T01:50:31.480Z,29.80
2018-01-12T01:52:59.022Z,28.97
2018-01-12T01:55:27.018Z,30.03
2018-01-12T01:57:54.855Z,30.37
2018-01-12T02:00:22.392Z,35.67
2018-01-12T02:02:50.732Z,32.03
2018-01-12T02:05:18.285Z,27.33
2018-01-12T02:07:45.870Z,27.27
2018-01-12T02:10:13.413Z,29.50
2018-01-12T02:12:42.693Z,26.37
2018-01-12T02:15:10.232Z,28.10
2018-01-12T02:17:37.828Z,26.50
2018-01-12T02:20:06.293Z,27.33
2018-01-12T02:22:33.838Z,25.80
2018-01-12T02:25:01.405Z,29.43
2018-01-12T02:27:28.946Z,29.27
2018-01-12T02:29:56.530Z,34.37
2018-01-12T02:32:24.068Z,26.50
2018-01-12T02:34:52.053Z,27.20
2018-01-12T02:37:19.594Z,28.60
2018-01-12T02:39:47.144Z,34.47
2018-01-12T02:42:14.716Z,29.20
2018-01-12T02:44:42.249Z,30.70
2018-01-12T02:47:09.841Z,27.53
2018-01-12T02:49:37.429Z,27.30
2018-01-12T02:52:05.285Z,35.47
2018-01-12T02:54:32.827Z,35.37
2018-01-12T02:57:00.377Z,32.90
2018-01-12T02:59:27.950Z,29.17
2018-01-12T03:01:55.496Z,25.17
2018-01-12T03:04:23.112Z,26.90
2018-01-12T03:06:50.677Z,28.30
2018-01-12T03:09:19.313Z,25.03
2018-01-12T03:11:46.857Z,33.93
2018-01-12T03:14:14.484Z,32.93
2018-01-12T03:16:42.828Z,35.93
2018-01-12T03:19:10.370Z,28.60
2018-01-12T03:21:37.952Z,32.17
2018-01-12T03:24:05.489Z,27.63
2018-01-12T03:26:33.061Z,28.27
2018-01-12T03:29:00.617Z,44.43
2018-01-12T03:31:28.167Z,28.27
2018-01-12T03:33:56.621Z,27.97
2018-01-12T03:36:24.157Z,28.83
2018-01-12T03:38:51.733Z,32.63
2018-01-12T03:41:20.046Z,31.70
2018-01-12T03:43:47.893Z,33.00
2018-01-12T03:46:15.452Z,31.70
2018-01-12T03:48:43.012Z,30.90
2018-01-12T03:51:10.802Z,35.40
2018-01-12T03:53:38.355Z,31.10
2018-01-12T03:56:05.928Z,28.40
2018-01-12T03:58:33.481Z,30.37
2018-01-12T04:01:01.550Z,32.47
2018-01-12T04:03:29.093Z,31.90
2018-01-12T04:05:56.654Z,31.97
2018-01-12T04:08:24.252Z,32.83
2018-01-12T04:10:51.812Z,27.97
2018-01-12T04:13:19.441Z,30.43
2018-01-12T04:15:46.984Z,38.13
2018-01-12T04:18:14.973Z,30.67
2018-01-12T04:20:42.517Z,29.47
2018-01-12T04:23:10.070Z,29.87
2018-01-12T04:25:37.641Z,31.80
2018-01-12T04:28:06.978Z,35.47
2018-01-12T04:30:35.321Z,24.73
2018-01-12T04:33:02.869Z,38.60
2018-01-12T04:35:30.881Z,25.73
2018-01-12T04:37:58.437Z,30.73
2018-01-12T04:40:26.007Z,31.50
2018-01-12T04:42:53.618Z,28.77
2018-01-12T04:45:21.182Z,29.30
2018-01-12T04:47:48.778Z,25.90
2018-01-12T04:50:16.349Z,36.27
2018-01-12T04:52:44.284Z,25.67
2018-01-12T04:55:11.855Z,29.97
2018-01-12T04:57:39.405Z,26.20
2018-01-12T05:00:07.016Z,28.47
2018-01-12T05:02:34.564Z,30.90
2018-01-12T05:05:02.906Z,28.80
2018-01-12T05:07:30.485Z,23.27
2018-01-12T05:09:58.349Z,29.03
2018-01-12T05:12:25.912Z,27.77
2018-01-12T05:14:53.667Z,26.17
2018-01-12T05:17:21.302Z,24.27
2018-01-12T05:19:48.866Z,26.37
2018-01-12T05:22:16.538Z,26.90
2018-01-12T05:24:44.081Z,25.47
2018-01-12T05:27:11.698Z,25.20
2018-01-12T05:29:40.018Z,24.90
2018-01-12T05:32:08.001Z,25.90
2018-01-12T05:34:35.566Z,26.77
2018-01-12T05:37:03.113Z,25.73
2018-01-12T05:39:30.694Z,25.53
2018-01-12T05:41:58.226Z,27.83
2018-01-12T05:44:25.804Z,25.60
2018-01-12T05:46:53.345Z,27.63
2018-01-12T05:49:20.938Z,27.87
2018-01-12T05:51:48.501Z,26.60
2018-01-12T05:54:16.454Z,26.90
2018-01-12T05:56:44.021Z,27.50
2018-01-12T05:59:11.573Z,29.47
2018-01-12T06:01:50.960Z,26.67
2018-01-12T06:04:30.281Z,27.17
2018-01-12T06:06:58.856Z,25.90
2018-01-12T06:09:26.409Z,26.50
2018-01-12T06:11:54.029Z,28.07
2018-01-12T06:14:21.571Z,27.70
2018-01-12T06:16:49.578Z,26.40
2018-01-12T06:19:17.138Z,27.67
2018-01-12T06:21:44.705Z,28.10
2018-01-12T06:24:12.302Z,28.77
2018-01-12T06:26:40.621Z,27.43
2018-01-12T06:29:08.222Z,26.80
2018-01-12T06:31:36.539Z,26.47
2018-01-12T06:34:04.385Z,26.90
2018-01-12T06:36:32.712Z,27.53
2018-01-12T06:39:00.303Z,55.37
2018-01-12T06:41:28.662Z,36.30
2018-01-12T06:43:56.218Z,34.93
2018-01-12T06:46:23.806Z,27.37
2018-01-12T06:48:51.381Z,26.50
2018-01-12T06:51:18.966Z,27.60
2018-01-12T06:53:46.521Z,26.67
2018-01-12T06:56:14.505Z,26.07
2018-01-12T06:58:42.062Z,25.37
2018-01-12T07:01:09.623Z,24.40
2018-01-12T07:03:37.417Z,24.13
2018-01-12T07:06:04.969Z,25.30
2018-01-12T07:08:32.565Z,23.40
2018-01-12T07:11:00.119Z,25.63
2018-01-12T07:13:28.786Z,25.20
2018-01-12T07:15:56.346Z,23.47
2018-01-12T07:18:23.896Z,26.50
2018-01-12T07:21:03.302Z,25.93
2018-01-12T07:23:53.829Z,28.47
2018-01-12T07:26:21.396Z,25.10
2018-01-12T07:28:48.953Z,24.90
2018-01-12T07:31:16.811Z,25.77
2018-01-12T07:33:44.384Z,24.93
2018-01-12T07:36:12.332Z,24.90
2018-01-12T07:38:40.036Z,26.80
2018-01-12T07:41:08.360Z,26.03
2018-01-12T07:43:35.975Z,26.10
2018-01-12T07:46:03.550Z,27.77
2018-01-12T07:48:31.147Z,29.83
2018-01-12T07:50:58.716Z,33.77
2018-01-12T07:53:26.315Z,27.30
2018-01-12T07:55:53.870Z,31.03
2018-01-12T07:58:22.519Z,27.60
2018-01-12T08:00:55.793Z,27.37
2018-01-12T08:03:23.791Z,28.37
2018-01-12T08:05:51.332Z,31.47
2018-01-12T08:08:18.885Z,32.77
2018-01-12T08:10:46.471Z,32.70
2018-01-12T08:13:15.701Z,29.83
2018-01-12T08:15:44.068Z,34.13
2018-01-12T08:18:11.637Z,31.60
2018-01-12T08:20:39.957Z,30.70
2018-01-12T08:23:07.508Z,30.87
2018-01-12T08:25:35.085Z,36.07
2018-01-12T08:28:02.638Z,31.77
2018-01-12T08:30:30.237Z,30.90
2018-01-12T08:32:57.811Z,33.00
2018-01-12T08:35:26.168Z,37.17
2018-01-12T08:37:53.732Z,38.77
2018-01-12T08:40:21.289Z,29.10
2018-01-12T08:42:49.412Z,49.67
2018-01-12T08:45:17.697Z,31.80
2018-01-12T08:47:45.590Z,31.90
2018-01-12T08:50:13.153Z,29.37
2018-01-12T08:52:40.716Z,35.40
2018-01-12T08:55:08.482Z,37.70
2018-01-12T08:57:36.030Z,36.97
2018-01-12T09:00:03.629Z,32.90
2018-01-12T09:02:31.197Z,38.10
2018-01-12T09:04:59.217Z,34.10
2018-01-12T09:07:26.787Z,36.03
2018-01-12T09:09:54.324Z,33.27
2018-01-12T09:12:21.967Z,37.73
2018-01-12T09:14:53.209Z,39.73
2018-01-12T09:17:30.625Z,33.10
2018-01-12T09:20:10.013Z,43.10
2018-01-12T09:22:48.382Z,32.60
2018-01-12T09:25:22.833Z,34.40
2018-01-12T09:27:50.775Z,31.57
2018-01-12T09:30:18.312Z,35.50
2018-01-12T09:32:45.856Z,32.83
2018-01-12T09:35:12.429Z,36.77
2018-01-12T09:37:39.675Z,35.10
2018-01-12T09:43:08.057Z,34.27
2018-01-12T09:45:35.611Z,34.00
2018-01-12T09:48:15.278Z,39.20
2018-01-12T09:50:42.839Z,38.40
2018-01-12T09:53:10.384Z,36.07
2018-01-12T09:55:38.097Z,39.83
2018-01-12T09:58:06.411Z,35.77
2018-01-12T10:00:45.849Z,35.27
2018-01-12T10:03:13.439Z,35.77
2018-01-12T10:05:41.593Z,44.50
2018-01-12T10:08:25.448Z,37.00
2018-01-12T10:10:53.053Z,35.53
2018-01-12T10:13:20.579Z,36.20
2018-01-12T10:15:48.424Z,44.43
2018-01-12T10:18:19.783Z,46.33
2018-01-12T10:20:47.321Z,36.27
2018-01-12T10:23:14.908Z,37.73
2018-01-12T10:25:42.472Z,39.47
2018-01-12T10:28:10.079Z,37.40
2018-01-12T10:30:55.250Z,35.83
2018-01-12T10:33:31.759Z,38.37
2018-01-12T10:35:59.337Z,45.70
2018-01-12T10:38:26.862Z,44.03
2018-01-12T10:41:25.913Z,38.57
2018-01-12T10:43:54.190Z,39.60
2018-01-12T10:46:35.376Z,41.53
2018-01-12T10:49:08.446Z,43.43
2018-01-12T10:51:37.072Z,38.97
2018-01-12T10:54:04.617Z,45.10
2018-01-12T10:56:32.175Z,44.67
2018-01-12T10:58:59.759Z,46.70
2018-01-12T11:01:27.306Z,45.57
2018-01-12T11:03:57.422Z,46.20
2018-01-12T11:06:25.105Z,49.43
2018-01-12T11:08:52.722Z,50.30
2018-01-12T11:11:20.256Z,50.90
2018-01-12T11:13:48.200Z,47.00
2018-01-12T11:16:15.749Z,51.47
2018-01-12T11:18:43.289Z,50.30
2018-01-12T11:21:10.902Z,48.53
2018-01-12T11:23:38.451Z,49.13
2018-01-12T11:26:06.060Z,51.80
2018-01-12T11:28:33.601Z,52.47
2018-01-12T11:31:01.953Z,50.67
2018-01-12T11:33:29.718Z,49.57
2018-01-12T11:35:57.790Z,46.50
2018-01-12T11:38:25.360Z,50.63
2018-01-12T11:40:52.942Z,52.20
2018-01-12T11:43:21.293Z,49.33
2018-01-12T11:45:50.358Z,50.40
2018-01-12T11:48:17.948Z,52.37
2018-01-12T11:50:45.497Z,48.67
2018-01-12T11:53:13.480Z,52.00
2018-01-12T11:55:41.049Z,53.67
2018-01-12T11:58:08.622Z,56.57
2018-01-12T12:00:36.987Z,50.17
2018-01-12T12:03:04.714Z,53.27
2018-01-12T12:05:32.325Z,53.50
2018-01-12T12:07:59.917Z,48.53
2018-01-12T12:10:27.554Z,50.37
2018-01-12T12:12:55.110Z,55.47
2018-01-12T12:15:22.742Z,56.87
2018-01-12T12:17:51.070Z,47.13
2018-01-12T12:20:18.775Z,51.23
2018-01-12T12:22:46.394Z,49.63
2018-01-12T12:25:13.939Z,52.10
2018-01-12T12:27:41.556Z,53.67
2018-01-12T12:30:09.116Z,54.97
2018-01-12T12:32:36.942Z,56.03
2018-01-12T12:35:04.488Z,50.33
2018-01-12T12:37:32.094Z,49.63
2018-01-12T12:39:59.670Z,51.57
2018-01-12T12:42:27.254Z,49.57
2018-01-12T12:44:54.873Z,53.97
2018-01-12T12:47:22.974Z,52.23
2018-01-12T12:49:50.582Z,49.60
2018-01-12T12:52:18.155Z,51.70
2018-01-12T12:54:45.766Z,50.33
2018-01-12T12:57:13.309Z,47.67
2018-01-12T12:59:41.981Z,49.47
2018-01-12T13:02:09.584Z,52.60
2018-01-12T13:04:37.135Z,48.07
2018-01-12T13:07:04.753Z,46.63
2018-01-12T13:09:32.323Z,47.60
2018-01-12T13:11:59.913Z,48.77
2018-01-12T13:14:28.240Z,50.00
2018-01-12T13:16:55.850Z,47.93
2018-01-12T13:19:24.168Z,47.60
2018-01-12T13:21:51.731Z,54.17
2018-01-12T13:24:19.376Z,48.87
2018-01-12T13:26:46.935Z,49.23
2018-01-12T13:29:14.521Z,46.10
2018-01-12T13:31:42.094Z,48.40
2018-01-12T13:34:09.709Z,50.63
2018-01-12T13:36:37.273Z,44.40
2018-01-12T13:39:04.809Z,47.23
2018-01-12T13:41:32.597Z,49.20
2018-01-12T13:44:00.175Z,46.67
2018-01-12T13:46:27.790Z,47.43
2018-01-12T13:48:56.113Z,51.30
2018-01-12T13:51:23.721Z,46.10
2018-01-12T13:53:52.052Z,47.63
2018-01-12T13:56:19.629Z,46.10
2018-01-12T13:58:47.237Z,46.07
2018-01-12T14:01:14.817Z,49.10
2018-01-12T14:03:42.782Z,47.70
2018-01-12T14:06:10.314Z,42.53
2018-01-12T14:08:38.742Z,46.90
2018-01-12T14:11:06.285Z,42.80
2018-01-12T14:13:33.833Z,44.73
2018-01-12T14:16:01.468Z,44.20
2018-01-12T14:18:29.790Z,35.60
2018-01-12T14:20:57.739Z,40.80
2018-01-12T14:23:25.311Z,38.93
2018-01-12T14:25:52.904Z,37.40
2018-01-12T14:28:20.456Z,40.97
2018-01-12T14:30:48.066Z,42.60
2018-01-12T14:33:15.622Z,41.50
2018-01-12T14:35:43.182Z,42.70
2018-01-12T14:38:10.789Z,38.30
2018-01-12T14:40:38.366Z,41.90
2018-01-12T14:43:05.983Z,44.03
2018-01-12T14:45:33.586Z,48.13
2018-01-12T14:48:01.236Z,47.43
2018-01-12T14:50:28.830Z,45.77
2018-01-12T14:52:56.938Z,44.57
2018-01-12T14:55:24.585Z,39.53
2018-01-12T14:57:52.141Z,48.40
2018-01-12T15:00:20.854Z,44.40
2018-01-12T15:02:48.689Z,45.13
2018-01-12T15:05:16.479Z,46.23
2018-01-12T15:07:44.150Z,48.53
2018-01-12T15:10:13.622Z,49.93
2018-01-12T15:12:41.186Z,47.97
2018-01-12T15:15:08.755Z,44.77
2018-01-12T15:17:36.354Z,44.30
2018-01-12T15:20:03.894Z,40.97
2018-01-12T15:22:31.485Z,44.30
2018-01-12T15:24:59.831Z,45.90
2018-01-12T15:27:27.437Z,41.20
2018-01-12T15:29:55.785Z,46.27
2018-01-12T15:32:23.366Z,43.67
2018-01-12T15:34:51.742Z,43.70
2018-01-12T15:37:19.317Z,46.93
2018-01-12T15:39:46.964Z,43.40
2018-01-12T15:42:14.509Z,42.50
2018-01-12T15:44:42.076Z,43.83
2018-01-12T15:47:09.682Z,42.30
2018-01-12T15:49:37.251Z,43.67
2018-01-12T15:52:04.849Z,44.67
2018-01-12T15:54:32.577Z,45.63
2018-01-12T15:57:00.204Z,45.13
2018-01-12T15:59:27.777Z,38.70
2018-01-12T16:01:56.102Z,41.90
2018-01-12T16:04:23.705Z,45.63
2018-01-12T16:06:52.032Z,44.70
2018-01-12T16:09:19.676Z,47.20
2018-01-12T16:11:47.249Z,45.30
2018-01-12T16:14:14.860Z,43.33
2018-01-12T16:16:42.430Z,46.30
2018-01-12T16:19:10.793Z,40.53
2018-01-12T16:21:38.608Z,42.50
2018-01-12T16:24:06.172Z,42.77
2018-01-12T16:26:33.772Z,43.20
2018-01-12T16:29:01.330Z,38.10
2018-01-12T16:31:28.954Z,42.97
2018-01-12T16:33:56.507Z,40.27
2018-01-12T16:36:24.066Z,41.90
2018-01-12T16:38:51.673Z,40.40
2018-01-12T16:41:19.247Z,39.33
2018-01-12T16:43:47.770Z,40.73
2018-01-12T16:46:15.578Z,38.57
2018-01-12T16:48:43.183Z,43.60
2018-01-12T16:51:10.758Z,43.40
2018-01-12T16:53:38.330Z,40.47
2018-01-12T16:56:05.963Z,43.43
2018-01-12T16:58:33.524Z,35.30
2018-01-12T17:01:01.144Z,41.60
2018-01-12T17:03:29.476Z,40.30
2018-01-12T17:05:57.038Z,39.57
2018-01-12T17:08:24.652Z,41.30
2018-01-12T17:10:52.419Z,39.80
2018-01-12T17:13:20.043Z,38.60
2018-01-12T17:15:47.590Z,41.20
2018-01-12T17:18:15.217Z,38.90
2018-01-12T17:20:43.549Z,39.20
2018-01-12T17:23:11.106Z,36.23
2018-01-12T17:25:39.510Z,37.33
2018-01-12T17:28:07.080Z,38.07
2018-01-12T17:30:34.813Z,37.90
2018-01-12T17:33:03.867Z,35.10
2018-01-12T17:35:31.654Z,38.17
2018-01-12T17:37:59.211Z,36.70
2018-01-12T17:40:26.810Z,39.77
2018-01-12T17:42:55.476Z,39.53
2018-01-12T17:45:23.017Z,39.43
2018-01-12T17:47:50.614Z,31.87
2018-01-12T17:50:18.952Z,35.60
2018-01-12T17:52:46.583Z,33.80
2018-01-12T17:55:14.382Z,35.73
2018-01-12T17:57:41.932Z,33.33
2018-01-12T18:00:09.539Z,34.20
2018-01-12T18:02:37.865Z,31.73
2018-01-12T18:05:05.478Z,36.17
2018-01-12T18:07:33.806Z,33.90
2018-01-12T18:10:01.429Z,36.00
2018-01-12T18:12:29.026Z,33.63
2018-01-12T18:14:56.588Z,34.80
2018-01-12T18:17:24.206Z,34.17
2018-01-12T18:19:51.748Z,31.33
2018-01-12T18:22:19.388Z,37.67
2018-01-12T18:24:47.033Z,38.23
2018-01-12T18:27:14.840Z,31.83
2018-01-12T18:29:43.185Z,32.27
2018-01-12T18:32:10.810Z,28.97
2018-01-12T18:34:38.423Z,32.70
2018-01-12T18:37:06.050Z,27.03
2018-01-12T18:39:34.613Z,32.40
2018-01-12T18:42:02.195Z,26.53
2018-01-12T18:44:29.811Z,32.10
2018-01-12T18:46:58.159Z,33.53
2018-01-12T18:49:26.143Z,30.30
2018-01-12T18:51:53.697Z,29.00
2018-01-12T18:54:22.785Z,30.27
2018-01-12T18:56:52.976Z,34.10
2018-01-12T18:59:20.673Z,35.90
2018-01-12T19:01:48.319Z,32.43
2018-01-12T19:04:15.934Z,33.97
2018-01-12T19:06:43.590Z,32.63
2018-01-12T19:09:11.165Z,32.83
2018-01-12T19:11:38.731Z,31.37
2018-01-12T19:14:06.386Z,32.20
2018-01-12T19:16:33.947Z,32.30
2018-01-12T19:19:01.542Z,31.20
2018-01-12T19:21:29.155Z,28.93
2018-01-12T19:23:56.819Z,30.87
2018-01-12T19:26:24.392Z,32.03
2018-01-12T19:28:52.022Z,31.93
2018-01-12T19:31:19.593Z,31.80
2018-01-12T19:33:47.165Z,30.70
2018-01-12T19:36:14.811Z,30.03
2018-01-12T19:38:42.363Z,30.40
2018-01-12T19:41:09.982Z,31.60
2018-01-12T19:43:37.554Z,30.70
2018-01-12T19:46:05.148Z,29.67
2018-01-12T19:48:33.502Z,31.30
2018-01-12T19:51:01.984Z,31.37
2018-01-12T19:53:30.029Z,30.33
2018-01-12T19:55:57.593Z,29.10
2018-01-12T19:58:25.244Z,30.50
2018-01-12T20:00:52.816Z,33.53
2018-01-12T20:03:20.418Z,28.40
2018-01-12T20:05:48.735Z,28.37
2018-01-12T20:08:16.311Z,28.07
2018-01-12T20:10:43.897Z,28.40
2018-01-12T20:13:11.648Z,30.37
2018-01-12T20:15:39.283Z,31.00
2018-01-12T20:18:08.714Z,31.10
2018-01-12T20:20:36.317Z,32.70
2018-01-12T20:23:03.864Z,28.40
2018-01-12T20:25:31.473Z,28.00
2018-01-12T20:27:59.361Z,29.90
2018-01-12T20:30:26.947Z,25.77
2018-01-12T20:32:55.315Z,25.40
2018-01-12T20:35:22.882Z,26.23
2018-01-12T20:37:51.275Z,26.10
2018-01-12T20:40:18.871Z,29.37
2018-01-12T20:42:46.491Z,27.30
2018-01-12T20:45:15.670Z,27.90
2018-01-12T20:47:43.232Z,26.83
2018-01-12T20:50:11.756Z,26.77
2018-01-12T20:52:40.188Z,26.80
2018-01-12T20:55:08.595Z,29.27
2018-01-12T20:57:36.173Z,27.70
2018-01-12T21:00:03.774Z,24.60
2018-01-12T21:02:31.345Z,27.87
2018-01-12T21:04:58.902Z,26.03
2018-01-12T21:07:26.515Z,27.80
2018-01-12T21:09:54.169Z,24.63
2018-01-12T21:12:21.780Z,26.77
2018-01-12T21:14:49.357Z,23.90
2018-01-12T21:17:17.735Z,27.27
2018-01-12T21:19:45.379Z,27.43
2018-01-12T21:22:12.943Z,27.67
2018-01-12T21:24:40.576Z,27.67
2018-01-12T21:27:08.118Z,27.40
2018-01-12T21:29:35.673Z,29.53
2018-01-12T21:32:03.291Z,30.70
2018-01-12T21:34:30.854Z,28.47
2018-01-12T21:36:59.217Z,25.30
2018-01-12T21:39:26.769Z,25.43
2018-01-12T21:41:54.390Z,29.20
2018-01-12T21:44:21.946Z,22.90
2018-01-12T21:46:49.497Z,26.93
2018-01-12T21:49:17.105Z,25.93
2018-01-12T21:51:44.666Z,27.80
2018-01-12T21:54:12.288Z,27.00
2018-01-12T21:56:39.841Z,23.20
2018-01-12T21:59:07.442Z,28.00
2018-01-12T22:01:35.000Z,27.60
2018-01-12T22:04:02.556Z,27.33
2018-01-12T22:06:30.173Z,28.27
2018-01-12T22:08:57.733Z,31.67
2018-01-12T22:11:25.334Z,30.30
2018-01-12T22:13:52.900Z,28.77
2018-01-12T22:16:20.868Z,27.23
2018-01-12T22:18:48.425Z,29.37
2018-01-12T22:21:15.989Z,29.13
2018-01-12T22:23:43.560Z,30.17
2018-01-12T22:26:11.112Z,28.63
2018-01-12T22:28:39.521Z,31.93
2018-01-12T22:31:07.247Z,29.93
2018-01-12T22:33:34.871Z,33.60
2018-01-12T22:36:02.470Z,32.80
2018-01-12T22:38:30.036Z,30.53
2018-01-12T22:40:58.710Z,28.80
2018-01-12T22:43:26.274Z,31.10
2018-01-12T22:45:53.894Z,28.37
2018-01-12T22:48:21.458Z,31.07
2018-01-12T22:50:49.038Z,30.83
2018-01-12T22:53:16.620Z,32.60
2018-01-12T22:55:44.163Z,33.50
2018-01-12T22:58:11.836Z,30.37
2018-01-12T23:00:39.401Z,31.90
2018-01-12T23:03:07.568Z,31.07
2018-01-12T23:05:35.157Z,29.83
2018-01-12T23:08:03.535Z,28.50
2018-01-12T23:10:31.105Z,33.00
2018-01-12T23:12:59.409Z,30.37
2018-01-12T23:15:27.020Z,31.03
2018-01-12T23:20:29.403Z,31.63
2018-01-12T23:22:56.961Z,32.47
2018-01-12T23:25:24.674Z,34.60
2018-01-12T23:27:52.222Z,31.50
2018-01-12T23:30:19.798Z,30.47
2018-01-12T23:32:47.350Z,33.50
2018-01-12T23:35:14.905Z,31.97
2018-01-12T23:37:42.498Z,32.30
2018-01-12T23:40:10.050Z,32.07
2018-01-12T23:42:37.645Z,33.20
2018-01-12T23:45:05.173Z,31.00
2018-01-12T23:47:32.796Z,34.77
2018-01-12T23:50:00.354Z,34.70
2018-01-12T23:52:27.893Z,27.97
2018-01-12T23:54:55.485Z,32.30
2018-01-12T23:57:23.036Z,32.10
2018-01-12T23:59:51.392Z,36.63
